createdAt,value
2023-09-27T00:00:09.869Z,81.70
2023-09-27T00:02:38.155Z,81.90
2023-09-27T00:05:08.260Z,82.00
2023-09-27T00:07:36.514Z,82.30
2023-09-27T00:10:04.588Z,82.50
2023-09-27T00:12:32.457Z,82.70
2023-09-27T00:14:59.363Z,82.90
2023-09-27T00:17:26.206Z,82.90
2023-09-27T00:19:52.957Z,82.90
2023-09-27T00:22:19.736Z,82.70
2023-09-27T00:24:46.586Z,82.60
2023-09-27T00:27:13.378Z,82.50
2023-09-27T00:29:40.501Z,82.50
2023-09-27T00:32:07.299Z,82.40
2023-09-27T00:34:34.094Z,82.50
2023-09-27T00:37:01.184Z,82.60
2023-09-27T00:39:28.148Z,82.80
2023-09-27T00:41:55.848Z,82.90
2023-09-27T00:44:23.265Z,83.00
2023-09-27T00:46:52.378Z,82.80
2023-09-27T00:49:19.304Z,82.70
2023-09-27T00:51:46.109Z,82.70
2023-09-27T00:54:13.308Z,82.70
2023-09-27T00:56:40.768Z,82.70
2023-09-27T00:59:08.752Z,82.80
2023-09-27T01:01:36.109Z,82.80
2023-09-27T01:04:04.183Z,82.80
2023-09-27T01:06:31.871Z,82.80
2023-09-27T01:08:58.577Z,83.00
2023-09-27T01:11:26.075Z,83.10
2023-09-27T01:13:52.889Z,83.00
2023-09-27T01:16:19.700Z,82.90
2023-09-27T01:18:46.544Z,83.00
2023-09-27T01:21:13.361Z,83.20
2023-09-27T01:23:42.309Z,83.20
2023-09-27T01:26:13.054Z,83.10
2023-09-27T01:28:42.180Z,83.00
2023-09-27T01:31:09.037Z,83.20
2023-09-27T01:33:35.813Z,83.10
2023-09-27T01:36:04.222Z,83.00
2023-09-27T01:38:31.501Z,82.80
2023-09-27T01:40:58.693Z,83.00
2023-09-27T01:43:25.916Z,83.00
2023-09-27T01:45:52.696Z,83.00
2023-09-27T01:48:20.716Z,83.00
2023-09-27T01:50:47.656Z,83.20
2023-09-27T01:53:14.428Z,83.40
2023-09-27T01:55:41.127Z,83.50
2023-09-27T01:58:48.292Z,83.70
2023-09-27T02:01:15.033Z,83.90
2023-09-27T02:03:44.070Z,84.10
2023-09-27T02:06:10.931Z,84.10
2023-09-27T02:08:37.722Z,83.90
2023-09-27T02:11:04.641Z,83.90
2023-09-27T02:13:31.380Z,84.00
2023-09-27T02:15:58.269Z,84.00
2023-09-27T02:18:25.159Z,83.90
2023-09-27T02:20:52.242Z,83.90
2023-09-27T02:23:19.058Z,84.00
2023-09-27T02:25:45.834Z,84.00
2023-09-27T02:28:12.640Z,84.00
2023-09-27T02:30:39.610Z,83.90
2023-09-27T02:33:06.993Z,84.00
2023-09-27T02:35:33.821Z,84.00
2023-09-27T02:38:00.723Z,84.10
2023-09-27T02:40:28.470Z,84.10
2023-09-27T02:42:55.229Z,84.00
2023-09-27T02:45:21.957Z,84.00
2023-09-27T02:47:48.939Z,84.20
2023-09-27T02:50:16.453Z,84.30
2023-09-27T02:52:44.901Z,84.30
2023-09-27T02:55:12.487Z,84.60
2023-09-27T02:57:40.646Z,84.70
2023-09-27T03:00:08.250Z,84.70
2023-09-27T03:02:35.479Z,84.70
2023-09-27T03:05:05.687Z,84.80
2023-09-27T03:07:34.848Z,84.90
2023-09-27T03:10:03.405Z,85.00
2023-09-27T03:12:30.132Z,85.00
2023-09-27T03:14:56.958Z,85.00
2023-09-27T03:17:23.741Z,85.10
2023-09-27T03:19:50.538Z,85.20
2023-09-27T03:22:18.168Z,85.30
2023-09-27T03:24:45.554Z,85.40
2023-09-27T03:27:12.390Z,85.30
2023-09-27T03:29:40.877Z,85.40
2023-09-27T03:32:07.843Z,85.40
2023-09-27T03:34:34.708Z,85.40
2023-09-27T03:37:01.448Z,85.30
2023-09-27T03:39:30.108Z,85.30
2023-09-27T03:41:57.594Z,85.40
2023-09-27T03:44:25.405Z,85.40
2023-09-27T03:46:52.565Z,85.50
2023-09-27T03:49:19.348Z,85.50
2023-09-27T03:51:46.153Z,85.70
2023-09-27T03:54:12.972Z,85.80
2023-09-27T03:56:39.762Z,85.90
2023-09-27T03:59:06.613Z,85.90
2023-09-27T04:01:33.443Z,86.00
2023-09-27T04:04:00.493Z,86.10
2023-09-27T04:06:27.421Z,86.10
2023-09-27T04:08:54.276Z,86.10
2023-09-27T04:11:21.251Z,86.00
2023-09-27T04:13:49.681Z,86.10
2023-09-27T04:16:16.652Z,86.20
2023-09-27T04:18:44.012Z,86.30
2023-09-27T04:21:12.217Z,86.40
2023-09-27T04:23:39.587Z,86.40
2023-09-27T04:26:06.919Z,86.60
2023-09-27T04:28:34.284Z,86.60
2023-09-27T04:31:01.827Z,86.50
2023-09-27T04:33:28.737Z,86.50
2023-09-27T04:35:55.594Z,86.50
2023-09-27T04:38:22.603Z,86.40
2023-09-27T04:40:49.548Z,86.40
2023-09-27T04:43:16.694Z,86.50
2023-09-27T04:45:43.568Z,86.50
2023-09-27T04:48:10.499Z,86.40
2023-09-27T04:50:37.533Z,86.30
2023-09-27T04:53:04.589Z,86.40
2023-09-27T04:55:31.554Z,86.40
2023-09-27T04:57:58.293Z,86.40
2023-09-27T05:00:25.202Z,86.30
2023-09-27T05:02:53.482Z,86.20
2023-09-27T05:05:20.570Z,86.20
2023-09-27T05:07:47.867Z,86.30
2023-09-27T05:10:15.485Z,86.20
2023-09-27T05:12:42.327Z,86.10
2023-09-27T05:15:10.647Z,86.20
2023-09-27T05:17:37.836Z,92.90
2023-09-27T05:20:12.161Z,92.90
2023-09-27T05:22:41.203Z,92.90
2023-09-27T05:25:12.073Z,92.90
2023-09-27T05:27:39.896Z,92.90
2023-09-27T05:30:11.869Z,86.40
2023-09-27T05:32:38.980Z,93.00
2023-09-27T05:35:06.493Z,93.00
2023-09-27T05:37:33.677Z,86.60
2023-09-27T05:40:00.534Z,86.80
2023-09-27T05:42:28.768Z,86.80
2023-09-27T05:44:57.203Z,86.80
2023-09-27T05:47:25.764Z,86.70
2023-09-27T05:49:52.638Z,86.70
2023-09-27T05:52:20.266Z,86.70
2023-09-27T05:54:47.372Z,86.70
2023-09-27T05:57:15.288Z,86.80
2023-09-27T05:59:45.842Z,86.80
2023-09-27T06:02:18.952Z,86.90
2023-09-27T06:04:47.586Z,87.10
2023-09-27T06:07:16.403Z,87.20
2023-09-27T06:09:43.332Z,87.40
2023-09-27T06:12:13.670Z,87.50
2023-09-27T06:14:43.594Z,87.90
2023-09-27T06:17:11.288Z,88.00
2023-09-27T06:19:38.790Z,88.20
2023-09-27T06:22:06.093Z,88.50
2023-09-27T06:24:33.049Z,88.70
2023-09-27T06:27:00.519Z,88.80
2023-09-27T06:29:27.343Z,89.00
2023-09-27T06:31:55.061Z,89.20
2023-09-27T06:34:21.972Z,89.60
2023-09-27T06:36:49.991Z,89.80
2023-09-27T06:39:18.057Z,89.90
2023-09-27T06:41:47.970Z,90.00
2023-09-27T06:44:15.030Z,90.10
2023-09-27T06:46:48.742Z,90.20
2023-09-27T06:49:17.971Z,90.20
2023-09-27T06:51:45.405Z,90.30
2023-09-27T06:54:12.274Z,90.40
2023-09-27T06:56:40.252Z,90.50
2023-09-27T06:59:08.926Z,90.60
2023-09-27T07:01:39.102Z,90.70
2023-09-27T07:04:09.910Z,90.80
2023-09-27T07:06:36.794Z,90.90
2023-09-27T07:09:07.070Z,91.00
2023-09-27T07:11:37.772Z,91.10
2023-09-27T07:14:04.737Z,91.20
